Time;durP1;ratioP1;P1;durP2;ratioP2;P2;SDS_P1;SDS_P2;PMS_P1;PMS_P2;Temp;Humidity;BMP_temperature;BMP_pressure;BME280_temperature;BME280_humidity;BME280_pressure;Samples;Min_cycle;Max_cycle;Signal;HPM_P1;HPM_P2
2023/10/12 00:27:12;;;;;;;16.90;10.77;;;;;;;15.74;100.00;101117.38;5743345;23;20303;-90
2023/10/12 00:29:39;;;;;;;27.42;10.48;;;;;;;15.64;100.00;101108.56;4957665;29;20027;-90
2023/10/12 00:32:08;;;;;;;21.23;11.73;;;;;;;15.67;100.00;101124.19;4957043;29;20118;-90
2023/10/12 01:11:06;;;;;;;34.67;16.08;;;;;;;14.93;100.00;101133.97;5445472;23;20062;-94
2023/10/12 01:13:35;;;;;;;31.25;16.88;;;;;;;15.04;100.00;101158.16;4974983;28;20081;-94
2023/10/12 01:16:45;;;;;;;36.63;17.48;;;;;;;14.99;100.00;101159.00;4973729;28;20034;-94
2023/10/12 01:19:05;;;;;;;40.83;17.05;;;;;;;14.98;100.00;101155.47;4961649;28;20119;-95
2023/10/12 01:21:35;;;;;;;35.58;17.60;;;;;;;14.98;100.00;101162.78;4955746;29;20043;-95
2023/10/12 01:24:04;;;;;;;37.22;18.48;;;;;;;14.93;100.00;101154.72;4956568;28;20035;-95
2023/10/12 01:26:31;;;;;;;38.63;18.23;;;;;;;14.94;100.00;101161.72;4956134;29;20023;-94
2023/10/12 01:28:58;;;;;;;37.92;18.73;;;;;;;14.90;100.00;101150.69;4956611;28;20023;-95
2023/10/12 01:31:35;;;;;;;35.60;18.52;;;;;;;14.94;100.00;101165.25;4956966;28;20023;-96
2023/10/12 01:34:01;;;;;;;40.00;19.40;;;;;;;14.93;100.00;101155.53;4958686;28;20031;-96
2023/10/12 01:36:32;;;;;;;41.53;19.47;;;;;;;14.82;100.00;101138.59;4970204;28;20393;-96
2023/10/12 01:39:14;;;;;;;39.08;20.05;;;;;;;14.84;100.00;101133.75;4957953;28;20038;-96
2023/10/12 01:41:42;;;;;;;41.38;20.48;;;;;;;14.92;100.00;101131.53;4973206;29;20031;-96
2023/10/12 01:44:11;;;;;;;43.42;21.15;;;;;;;14.90;100.00;101118.31;4980512;28;20031;-96
2023/10/12 01:46:40;;;;;;;35.10;20.88;;;;;;;14.87;100.00;101113.47;4969216;28;20050;-96
2023/10/12 01:49:06;;;;;;;38.87;20.97;;;;;;;14.88;100.00;101106.22;4970367;28;20027;-96
2023/10/12 01:51:33;;;;;;;50.53;21.40;;;;;;;14.84;100.00;101112.16;4955675;28;20039;-95
2023/10/12 01:53:59;;;;;;;45.53;21.35;;;;;;;14.83;100.00;101117.81;4970868;28;20031;-95
2023/10/12 01:56:28;;;;;;;43.22;20.60;;;;;;;14.81;100.00;101115.41;4964848;28;20645;-96
2023/10/12 01:58:54;;;;;;;40.97;20.90;;;;;;;14.80;100.00;101127.28;4956694;29;20078;-95
2023/10/12 02:01:21;;;;;;;48.70;22.90;;;;;;;14.81;100.00;101130.78;4956639;28;20035;-95
2023/10/12 02:03:48;;;;;;;41.83;21.83;;;;;;;14.75;100.00;101116.50;4953482;28;20126;-94
2023/10/12 02:06:22;;;;;;;45.20;21.15;;;;;;;14.73;100.00;101115.19;4966355;28;20071;-95
2023/10/12 02:08:52;;;;;;;44.15;21.95;;;;;;;14.76;100.00;101117.34;4974618;28;20033;-96
2023/10/12 02:14:05;;;;;;;43.03;21.57;;;;;;;14.76;100.00;101120.03;4954303;28;20035;-93
2023/10/12 02:16:37;;;;;;;47.42;22.25;;;;;;;14.74;100.00;101125.69;4966852;28;20611;-94
2023/10/12 02:19:04;;;;;;;46.53;22.17;;;;;;;14.77;100.00;101140.53;4972269;28;20031;-95
2023/10/12 02:21:33;;;;;;;51.40;25.33;;;;;;;14.74;100.00;101139.19;4973186;28;20290;-94
2023/10/12 02:24:11;;;;;;;54.83;25.40;;;;;;;14.73;100.00;101134.88;4955680;28;20027;-93
2023/10/12 02:26:38;;;;;;;53.78;24.65;;;;;;;14.69;100.00;101137.31;4957660;28;20027;-94
2023/10/12 02:31:54;;;;;;;47.80;23.73;;;;;;;14.64;100.00;101128.44;4952362;28;20039;-93
2023/10/12 02:34:20;;;;;;;46.63;24.27;;;;;;;14.60;100.00;101114.69;4955800;28;20090;-93
2023/10/12 02:39:40;;;;;;;45.17;23.37;;;;;;;14.56;100.00;101089.38;4967443;28;20766;-95
2023/10/12 02:47:23;;;;;;;48.25;23.15;;;;;;;14.49;100.00;101086.97;4950196;29;20035;-96
2023/10/12 02:49:49;;;;;;;43.75;21.95;;;;;;;14.50;100.00;101106.66;4951876;28;20024;-94
2023/10/12 02:52:15;;;;;;;47.90;24.95;;;;;;;14.43;100.00;101098.03;4951414;28;20030;-93
2023/10/12 02:54:49;;;;;;;50.40;24.40;;;;;;;14.49;100.00;101086.16;4971642;28;20100;-94
2023/10/12 02:57:23;;;;;;;44.70;23.53;;;;;;;14.49;100.00;101091.56;4934363;29;20307;-94
2023/10/12 03:02:36;;;;;;;44.15;22.80;;;;;;;14.45;100.00;101103.97;4938659;29;20050;-94
2023/10/12 03:05:06;;;;;;;49.63;24.03;;;;;;;14.37;100.00;101073.81;4965289;28;20023;-96
2023/10/12 03:07:37;;;;;;;47.58;23.17;;;;;;;14.43;100.00;101088.06;4950607;28;20050;-96
2023/10/12 03:10:15;;;;;;;45.67;22.83;;;;;;;14.44;100.00;101084.31;4948679;29;20032;-96
2023/10/12 03:12:43;;;;;;;48.75;24.42;;;;;;;14.39;100.00;101079.75;4941657;29;20031;-96
2023/10/12 03:15:14;;;;;;;47.50;23.02;;;;;;;14.41;100.00;101084.06;4967626;28;20038;-96
2023/10/12 03:17:53;;;;;;;45.13;22.70;;;;;;;14.35;100.00;101086.78;4954829;29;20038;-96
2023/10/12 03:20:22;;;;;;;42.80;22.17;;;;;;;14.33;100.00;101082.75;4953779;29;20427;-96
2023/10/12 03:22:52;;;;;;;45.87;22.10;;;;;;;14.37;100.00;101081.91;4956108;28;20294;-96
2023/10/12 03:25:36;;;;;;;50.70;22.60;;;;;;;14.41;100.00;101094.84;4944029;28;20047;-96
2023/10/12 03:28:11;;;;;;;39.70;20.33;;;;;;;14.38;100.00;101096.19;4943026;28;20431;-96
2023/10/12 03:30:43;;;;;;;46.92;22.30;;;;;;;14.38;100.00;101098.88;4976533;28;20023;-96
2023/10/12 03:33:11;;;;;;;39.85;19.38;;;;;;;14.35;100.00;101094.84;4975734;28;20039;-96
2023/10/12 03:35:51;;;;;;;42.53;20.58;;;;;;;14.32;100.00;101087.31;4970165;28;20122;-96
2023/10/12 03:38:19;;;;;;;42.57;20.47;;;;;;;14.35;100.00;101092.16;4954784;28;20137;-94
2023/10/12 03:40:51;;;;;;;38.63;20.03;;;;;;;14.34;100.00;101084.34;4950770;28;20287;-94
2023/10/12 03:43:26;;;;;;;42.65;21.17;;;;;;;14.30;100.00;101076.00;4953656;28;20050;-96
2023/10/12 03:48:38;;;;;;;43.00;19.75;;;;;;;14.30;100.00;101094.09;4959089;28;20082;-95
2023/10/12 03:53:45;;;;;;;35.13;18.85;;;;;;;14.27;100.00;101097.31;4964841;28;20793;-94
2023/10/12 03:56:14;;;;;;;44.05;19.65;;;;;;;14.26;100.00;101104.59;4933948;29;20032;-94
2023/10/12 03:58:46;;;;;;;37.50;17.83;;;;;;;14.19;100.00;101104.09;4946694;28;20053;-95
2023/10/12 04:01:22;;;;;;;37.13;18.38;;;;;;;14.16;100.00;101101.94;4972604;28;20046;-94
2023/10/12 04:03:58;;;;;;;39.22;18.35;;;;;;;14.15;100.00;101101.13;4971532;28;20034;-94
2023/10/12 04:06:24;;;;;;;42.47;17.80;;;;;;;14.13;100.00;101097.09;4958280;28;20038;-95
2023/10/12 04:08:55;;;;;;;37.38;17.75;;;;;;;14.17;100.00;101125.13;4952959;28;20074;-95
2023/10/12 04:11:49;;;;;;;37.38;17.63;;;;;;;14.17;100.00;101128.59;4950902;28;20142;-94
2023/10/12 04:14:43;;;;;;;37.57;17.23;;;;;;;14.14;100.00;101122.97;4957013;28;20138;-93
2023/10/12 04:17:18;;;;;;;35.50;18.07;;;;;;;14.13;100.00;101124.03;4952929;28;20382;-94
2023/10/12 04:19:54;;;;;;;33.33;17.65;;;;;;;14.18;100.00;101132.13;4974160;28;20035;-94
2023/10/12 04:22:26;;;;;;;34.58;17.88;;;;;;;14.16;100.00;101129.69;4979322;28;20045;-94
2023/10/12 04:24:55;;;;;;;44.63;19.75;;;;;;;14.18;100.00;101129.44;4971381;28;20026;-93
2023/10/12 04:27:24;;;;;;;40.28;18.40;;;;;;;14.15;100.00;101122.69;4967416;28;20016;-94
2023/10/12 04:29:56;;;;;;;39.78;19.65;;;;;;;14.20;100.00;101127.25;4953979;29;20096;-95
2023/10/12 04:35:20;;;;;;;36.80;17.80;;;;;;;14.18;100.00;101126.72;4965471;28;20090;-94
2023/10/12 04:37:47;;;;;;;39.85;19.10;;;;;;;14.20;100.00;101129.97;4972444;28;20031;-94
2023/10/12 04:43:00;;;;;;;48.22;20.40;;;;;;;14.13;100.00;101108.69;4959959;28;20106;-93
2023/10/12 04:45:28;;;;;;;41.58;18.90;;;;;;;14.21;100.00;101134.28;4965474;28;20031;-93
2023/10/12 04:48:07;;;;;;;38.63;19.10;;;;;;;14.13;100.00;101116.78;4942599;29;20634;-93
2023/10/12 04:50:52;;;;;;;41.15;19.35;;;;;;;14.15;100.00;101130.75;4936783;29;20388;-94
2023/10/12 04:53:18;;;;;;;35.00;18.77;;;;;;;14.19;100.00;101137.22;4936800;29;20403;-94
2023/10/12 04:55:47;;;;;;;36.40;18.33;;;;;;;14.22;100.00;101138.59;4936645;29;20651;-93
2023/10/12 05:00:55;;;;;;;34.53;18.05;;;;;;;14.18;100.00;101132.13;4957995;29;20042;-94
2023/10/12 05:03:25;;;;;;;35.80;17.45;;;;;;;14.18;100.00;101135.59;4956033;29;20081;-94
2023/10/12 05:05:57;;;;;;;36.28;18.00;;;;;;;14.14;100.00;101122.97;4955571;29;20030;-94
2023/10/12 05:08:22;;;;;;;36.53;18.10;;;;;;;14.20;100.00;101140.75;4966210;28;20039;-94
2023/10/12 05:10:48;;;;;;;41.57;18.93;;;;;;;14.21;100.00;101145.84;4975555;28;20085;-93
2023/10/12 05:13:19;;;;;;;34.10;17.30;;;;;;;14.24;100.00;101160.69;4974608;28;20031;-93
2023/10/12 05:15:54;;;;;;;35.47;17.40;;;;;;;14.25;100.00;101162.25;4970327;28;20037;-93
2023/10/12 05:18:20;;;;;;;37.00;17.92;;;;;;;14.21;100.00;101161.22;4955364;29;20043;-92
2023/10/12 05:20:45;;;;;;;40.60;19.40;;;;;;;14.21;100.00;101167.41;4956238;29;20023;-93
2023/10/12 05:23:12;;;;;;;33.87;18.37;;;;;;;14.24;100.00;101174.94;4954474;28;20031;-94
2023/10/12 05:25:48;;;;;;;36.45;17.45;;;;;;;14.32;100.00;101175.47;4950663;28;20026;-95
2023/10/12 05:28:31;;;;;;;34.37;16.70;;;;;;;14.26;100.00;101158.50;4975575;28;20478;-95
2023/10/12 05:31:09;;;;;;;34.03;16.97;;;;;;;14.29;100.00;101173.31;4959919;28;20311;-96
2023/10/12 05:33:43;;;;;;;39.05;16.83;;;;;;;14.27;100.00;101165.50;4963343;28;20034;-96
2023/10/12 05:36:13;;;;;;;38.67;18.10;;;;;;;14.32;100.00;101173.56;4971694;28;20134;-95
2023/10/12 05:38:59;;;;;;;31.20;16.52;;;;;;;14.35;100.00;101177.59;4984079;23;20014;-96
2023/10/12 05:43:57;;;;;;;33.50;17.17;;;;;;;14.14;100.00;101139.13;4924818;29;20042;-96
2023/10/12 05:46:28;;;;;;;33.17;16.60;;;;;;;14.20;100.00;101162.31;4938541;29;20040;-96
2023/10/12 05:48:54;;;;;;;32.58;17.17;;;;;;;14.20;100.00;101159.59;4921689;29;20031;-96
2023/10/12 05:51:21;;;;;;;32.93;16.00;;;;;;;14.14;100.00;101144.53;4939092;29;20031;-96
2023/10/12 05:53:48;;;;;;;29.92;15.48;;;;;;;14.34;100.00;101195.69;4941826;29;20031;-96
2023/10/12 05:56:17;;;;;;;35.00;15.90;;;;;;;14.21;100.00;101194.34;4935221;29;20094;-96
2023/10/12 05:58:43;;;;;;;35.20;16.10;;;;;;;14.19;100.00;101180.34;4918222;29;20388;-95
2023/10/12 06:01:09;;;;;;;33.37;15.80;;;;;;;14.32;100.00;101205.91;4925783;29;20024;-96
2023/10/12 06:03:46;;;;;;;33.58;16.23;;;;;;;14.30;100.00;101204.59;4939722;29;20027;-92
2023/10/12 06:06:12;;;;;;;31.20;15.50;;;;;;;14.36;100.00;101214.25;5431078;23;20054;-91
2023/10/12 06:08:39;;;;;;;30.60;14.82;;;;;;;14.32;100.00;101202.44;4943630;29;20107;-96
2023/10/12 06:11:07;;;;;;;36.70;15.87;;;;;;;14.36;100.00;101215.09;4931454;29;20035;-91
2023/10/12 06:13:41;;;;;;;33.10;15.83;;;;;;;14.31;100.00;101207.00;4933397;29;20299;-90
2023/10/12 06:16:14;;;;;;;34.10;15.38;;;;;;;14.34;100.00;101214.53;4938153;29;20031;-91
2023/10/12 06:18:44;;;;;;;36.65;15.73;;;;;;;14.31;100.00;101209.69;4935537;29;20346;-91
2023/10/12 06:21:17;;;;;;;29.65;13.90;;;;;;;14.30;100.00;101207.28;4916420;29;20036;-93
2023/10/12 06:23:49;;;;;;;30.85;15.48;;;;;;;14.35;100.00;101224.25;4941641;29;20027;-93
2023/10/12 06:26:36;;;;;;;32.50;14.90;;;;;;;14.35;100.00;101221.56;4934176;29;20039;-92
2023/10/12 06:29:01;;;;;;;36.97;15.57;;;;;;;14.31;100.00;101214.28;4934748;29;20051;-91
2023/10/12 06:31:29;;;;;;;28.53;14.60;;;;;;;14.30;100.00;101221.56;4936455;29;20644;-94
2023/10/12 06:33:55;;;;;;;30.30;15.18;;;;;;;14.32;100.00;101221.31;4928398;29;20063;-91
2023/10/12 06:36:36;;;;;;;29.65;14.43;;;;;;;14.31;100.00;101228.56;4935506;29;20032;-91
2023/10/12 06:44:33;;;;;;;31.25;14.20;;;;;;;14.35;100.00;101229.63;4934486;29;20043;-90
2023/10/12 06:47:02;;;;;;;31.75;14.48;;;;;;;14.34;100.00;101230.72;4926911;29;20498;-90
2023/10/12 06:49:32;;;;;;;28.48;14.20;;;;;;;14.32;100.00;101230.19;4934913;29;20039;-90
2023/10/12 06:52:03;;;;;;;29.58;14.52;;;;;;;14.31;100.00;101233.97;4936668;29;20112;-92
2023/10/12 07:02:29;;;;;;;31.33;14.63;;;;;;;14.37;100.00;101250.91;4930793;29;20046;-89
2023/10/12 07:04:58;;;;;;;33.65;15.32;;;;;;;14.36;100.00;101254.69;4931996;29;20032;-89
2023/10/12 07:07:43;;;;;;;26.52;14.07;;;;;;;14.30;100.00;101243.13;4928896;29;20059;-88
2023/10/12 07:12:37;;;;;;;32.70;14.48;;;;;;;14.38;100.00;101264.16;4914214;29;20525;-90
2023/10/12 07:15:10;;;;;;;30.03;14.50;;;;;;;14.40;100.00;101263.84;4914988;29;20028;-89
2023/10/12 07:17:36;;;;;;;38.40;15.70;;;;;;;14.40;100.00;101266.56;4932363;29;20295;-88
2023/10/12 07:20:02;;;;;;;32.38;14.98;;;;;;;14.34;100.00;101254.16;4931787;29;20039;-93
2023/10/12 07:24:58;;;;;;;30.88;15.20;;;;;;;14.39;100.00;101267.63;4949199;29;20124;-90
2023/10/12 07:27:24;;;;;;;28.33;15.07;;;;;;;14.37;100.00;101264.41;4954038;29;20031;-95
2023/10/12 07:30:10;;;;;;;30.92;16.20;;;;;;;14.33;100.00;101256.06;4952688;29;20446;-92
2023/10/12 07:32:38;;;;;;;32.45;14.52;;;;;;;14.44;100.00;101277.59;4952466;28;20118;-92
2023/10/12 07:35:12;;;;;;;33.53;15.40;;;;;;;14.41;100.00;101278.16;4956042;28;20438;-94
2023/10/12 07:37:42;;;;;;;30.88;14.15;;;;;;;14.43;100.00;101281.38;4943224;28;20034;-93
2023/10/12 07:40:23;;;;;;;33.33;14.93;;;;;;;14.39;100.00;101268.47;4973501;28;20023;-94
2023/10/12 07:42:48;;;;;;;31.23;14.73;;;;;;;14.48;100.00;101284.06;4966106;28;20305;-96
2023/10/12 07:45:15;;;;;;;32.05;15.32;;;;;;;14.51;100.00;101281.66;4962995;28;20031;-95
2023/10/12 07:47:42;;;;;;;35.63;14.45;;;;;;;14.48;100.00;101279.50;4953160;29;20475;-93
2023/10/12 07:50:13;;;;;;;30.98;15.18;;;;;;;14.38;100.00;101266.03;4934100;29;20122;-93
2023/10/12 07:55:16;;;;;;;31.10;14.90;;;;;;;14.50;100.00;101288.13;4940973;28;20965;-91
2023/10/12 07:57:42;;;;;;;27.47;14.73;;;;;;;14.53;100.00;101278.66;4952873;29;20031;-91
2023/10/12 08:13:26;;;;;;;32.58;15.48;;;;;;;14.71;100.00;101279.97;4952590;29;20471;-92
2023/10/12 08:24:09;;;;;;;29.17;15.40;;;;;;;14.77;100.00;101270.81;4966397;28;20449;-96
2023/10/12 08:31:48;;;;;;;31.95;15.27;;;;;;;15.27;100.00;101276.25;4960766;29;20189;-95
2023/10/12 08:39:38;;;;;;;31.48;15.40;;;;;;;15.63;100.00;101290.63;4966674;29;20407;-96
2023/10/12 08:44:59;;;;;;;28.48;15.40;;;;;;;15.92;100.00;101271.78;4941377;29;20040;-96
2023/10/12 08:52:30;;;;;;;29.33;14.38;;;;;;;16.35;100.00;101273.84;4964007;29;20035;-96
2023/10/12 08:55:13;;;;;;;27.20;14.20;;;;;;;16.50;100.00;101311.53;4950439;29;20081;-91
2023/10/12 08:58:03;;;;;;;27.77;12.55;;;;;;;16.51;100.00;101309.66;4959919;29;20116;-92
2023/10/12 09:03:15;;;;;;;20.92;12.00;;;;;;;16.41;100.00;101324.06;4951672;29;20039;-94
2023/10/12 09:05:41;;;;;;;18.37;11.77;;;;;;;16.35;100.00;101317.09;4939221;29;20042;-94
2023/10/12 09:13:17;;;;;;;23.40;11.98;;;;;;;16.21;100.00;101316.94;5064168;23;20047;-95
2023/10/12 09:15:45;;;;;;;20.40;11.98;;;;;;;16.11;100.00;101315.13;4958382;28;20031;-94
2023/10/12 09:18:13;;;;;;;17.80;11.93;;;;;;;16.10;100.00;101315.44;4958628;28;20035;-94
2023/10/12 09:20:41;;;;;;;23.20;12.63;;;;;;;16.03;100.00;101313.84;4958186;28;20023;-94
2023/10/12 09:23:13;;;;;;;20.33;12.75;;;;;;;15.97;100.00;101309.59;4944051;29;20055;-96
2023/10/12 09:28:26;;;;;;;23.23;13.27;;;;;;;15.91;100.00;101324.22;4958078;29;20046;-95
2023/10/12 09:30:52;;;;;;;27.83;12.80;;;;;;;15.78;100.00;101306.72;4956892;29;20038;-95
2023/10/12 09:36:02;;;;;;;22.50;12.47;;;;;;;15.76;100.00;101319.69;4936557;29;20331;-94
2023/10/12 09:38:31;;;;;;;24.60;13.07;;;;;;;15.73;100.00;101309.44;4948031;29;20411;-93
2023/10/12 09:40:59;;;;;;;24.80;13.32;;;;;;;15.74;100.00;101306.47;4962360;29;20103;-92
2023/10/12 09:43:30;;;;;;;27.52;14.75;;;;;;;15.70;100.00;101301.94;4939304;29;20566;-91
2023/10/12 09:46:05;;;;;;;26.20;14.03;;;;;;;15.66;100.00;101304.38;4961630;29;20028;-91
2023/10/12 09:48:38;;;;;;;28.23;16.00;;;;;;;15.65;100.00;101299.25;4955924;29;20279;-92
2023/10/12 09:51:09;;;;;;;26.02;13.52;;;;;;;15.69;100.00;101303.81;4955347;28;20043;-94
2023/10/12 09:53:40;;;;;;;24.60;13.73;;;;;;;15.59;100.00;101293.88;4936793;29;20023;-95
2023/10/12 09:56:16;;;;;;;19.52;12.52;;;;;;;15.61;100.00;101288.22;4953377;29;20023;-95
2023/10/12 09:58:51;;;;;;;23.20;13.48;;;;;;;15.63;100.00;101296.81;4955256;29;20031;-94
2023/10/12 10:01:49;;;;;;;23.40;13.02;;;;;;;15.58;100.00;101289.56;4954178;28;20476;-95
2023/10/12 10:07:25;;;;;;;23.48;13.48;;;;;;;15.74;100.00;101284.88;4952837;29;20054;-94
2023/10/12 10:09:54;;;;;;;26.92;13.38;;;;;;;15.84;100.00;101293.97;4953944;29;20475;-95
2023/10/12 10:12:22;;;;;;;22.70;13.48;;;;;;;15.84;100.00;101292.09;4935945;29;20031;-94
2023/10/12 10:15:00;;;;;;;24.02;13.40;;;;;;;15.83;100.00;101287.78;4953268;29;20047;-95
2023/10/12 10:17:35;;;;;;;24.40;14.32;;;;;;;15.96;100.00;101293.63;4954826;29;20392;-96
2023/10/12 10:23:03;;;;;;;24.47;14.43;;;;;;;16.01;100.00;101280.09;4955031;29;20181;-92
2023/10/12 10:25:42;;;;;;;23.45;14.18;;;;;;;15.99;100.00;101282.28;4953899;29;20463;-95
2023/10/12 10:28:13;;;;;;;26.08;14.35;;;;;;;16.05;100.00;101278.44;4952605;29;20367;-95
2023/10/12 10:30:41;;;;;;;26.95;15.02;;;;;;;16.08;100.00;101280.56;4953273;29;20112;-95
2023/10/12 10:33:12;;;;;;;27.08;14.20;;;;;;;16.08;100.00;101269.75;4954250;29;20039;-94
2023/10/12 10:36:24;;;;;;;30.15;15.80;;;;;;;16.19;100.00;101275.88;4937353;29;20540;-92
2023/10/12 10:41:22;;;;;;;27.02;14.80;;;;;;;16.44;100.00;101274.81;4953203;28;20106;-94
2023/10/12 10:43:51;;;;;;;30.13;15.32;;;;;;;16.70;100.00;101263.72;4953499;28;20027;-93
2023/10/12 10:46:17;;;;;;;26.17;15.20;;;;;;;16.77;100.00;101264.19;4953780;29;20541;-92
2023/10/12 10:48:49;;;;;;;24.17;13.48;;;;;;;16.77;100.00;101266.88;4952996;29;20435;-91
2023/10/12 10:56:35;;;;;;;23.77;13.32;;;;;;;16.97;100.00;101251.53;5904856;23;20066;-92
2023/10/12 10:59:12;;;;;;;23.08;12.45;;;;;;;16.94;100.00;101246.66;4959889;29;20034;-92
2023/10/12 11:01:41;;;;;;;22.77;12.77;;;;;;;16.89;100.00;101255.63;4941603;29;20036;-92
2023/10/12 11:04:18;;;;;;;21.77;12.63;;;;;;;16.92;100.00;101254.25;4948171;29;20035;-93
2023/10/12 11:06:47;;;;;;;20.10;11.60;;;;;;;16.99;100.00;101260.13;4921272;29;20062;-93
2023/10/12 11:09:15;;;;;;;21.67;11.07;;;;;;;16.90;100.00;101254.53;4935290;29;20338;-93
2023/10/12 11:11:52;;;;;;;17.70;11.07;;;;;;;16.87;100.00;101259.72;4934696;29;20043;-92
2023/10/12 11:14:22;;;;;;;18.67;11.00;;;;;;;16.75;100.00;101249.31;4951381;29;20134;-93
2023/10/12 11:16:48;;;;;;;16.88;10.65;;;;;;;16.81;100.00;101245.47;4954306;28;20025;-93
2023/10/12 11:19:13;;;;;;;18.40;10.02;;;;;;;16.92;100.00;101252.34;4955581;28;20102;-93
2023/10/12 11:21:46;;;;;;;19.47;10.30;;;;;;;17.03;100.00;101244.13;4941820;29;20035;-93
2023/10/12 11:24:14;;;;;;;19.13;10.10;;;;;;;17.17;100.00;101255.03;4935762;29;20290;-93
2023/10/12 11:27:11;;;;;;;23.77;9.80;;;;;;;17.13;100.00;101252.09;4935658;29;20036;-93
2023/10/12 11:29:51;;;;;;;15.48;9.15;;;;;;;17.16;100.00;101250.72;4925657;29;20055;-94
2023/10/12 11:32:16;;;;;;;16.92;9.27;;;;;;;17.16;100.00;101248.81;4919155;29;20050;-93
2023/10/12 11:34:52;;;;;;;17.50;9.17;;;;;;;17.22;100.00;101252.25;4935748;29;20095;-94
2023/10/12 11:37:18;;;;;;;18.38;9.55;;;;;;;17.23;100.00;101243.03;4954486;29;20118;-93
2023/10/12 11:39:45;;;;;;;14.77;9.27;;;;;;;17.10;100.00;101242.66;4956499;29;20033;-93
2023/10/12 11:42:14;;;;;;;17.00;8.90;;;;;;;17.05;100.00;101247.34;4938725;29;20325;-93
2023/10/12 11:44:45;;;;;;;16.30;8.80;;;;;;;17.06;100.00;101249.75;4917300;29;20020;-92
2023/10/12 11:47:13;;;;;;;18.30;8.85;;;;;;;17.02;100.00;101247.94;4933489;29;20185;-93
2023/10/12 11:49:55;;;;;;;18.75;9.10;;;;;;;16.89;100.00;101244.00;4936154;29;20051;-92
2023/10/12 11:52:30;;;;;;;17.08;8.27;;;;;;;16.81;100.00;101238.13;4934742;29;20055;-93
2023/10/12 11:55:07;;;;;;;17.73;8.73;;;;;;;16.71;100.00;101224.75;4916182;29;20035;-92
2023/10/12 11:57:35;;;;;;;12.63;7.80;;;;;;;16.84;100.00;101225.94;4917630;29;20023;-93
2023/10/12 12:00:07;;;;;;;14.70;7.97;;;;;;;17.01;100.00;101230.88;4918768;29;20114;-93
2023/10/12 12:02:32;;;;;;;18.58;7.90;;;;;;;17.15;100.00;101224.75;4934449;29;20039;-92
2023/10/12 12:04:57;;;;;;;12.57;7.95;;;;;;;17.22;100.00;101230.59;4934062;29;20083;-92
2023/10/12 12:07:23;;;;;;;16.97;8.70;;;;;;;17.29;100.00;101238.34;4944993;29;20034;-93
2023/10/12 12:09:48;;;;;;;13.97;7.67;;;;;;;17.22;100.00;101225.19;4952259;29;20117;-92
2023/10/12 12:12:16;;;;;;;13.37;7.67;;;;;;;17.25;100.00;101224.59;4942186;29;20038;-92
2023/10/12 12:14:48;;;;;;;15.18;8.13;;;;;;;17.34;100.00;101219.31;4952804;29;20390;-93
2023/10/12 12:17:17;;;;;;;14.23;8.20;;;;;;;17.50;100.00;101231.53;4960020;29;20455;-93
2023/10/12 12:19:42;;;;;;;17.00;7.83;;;;;;;17.61;100.00;101229.47;4956914;28;20030;-92
2023/10/12 12:22:13;;;;;;;15.60;8.20;;;;;;;17.65;100.00;101235.91;4939774;29;20040;-91
2023/10/12 12:24:41;;;;;;;15.57;8.33;;;;;;;17.67;100.00;101227.47;4964324;29;20043;-92
2023/10/12 12:27:10;;;;;;;15.32;7.60;;;;;;;17.65;100.00;101214.22;5458598;23;20451;-92
2023/10/12 12:29:35;;;;;;;14.45;7.72;;;;;;;17.59;100.00;101199.16;4935067;28;20047;-91
2023/10/12 12:32:03;;;;;;;12.73;7.77;;;;;;;17.51;100.00;101189.00;4946727;28;20027;-93
2023/10/12 12:34:47;;;;;;;11.55;7.53;;;;;;;17.38;100.00;101190.56;4954538;28;20023;-91
2023/10/12 12:37:16;;;;;;;14.93;7.55;;;;;;;17.12;100.00;101182.81;4953198;29;20496;-92
2023/10/12 12:39:42;;;;;;;18.85;8.18;;;;;;;17.07;100.00;101180.97;4948882;28;20054;-90
2023/10/12 12:42:11;;;;;;;14.70;7.43;;;;;;;16.97;100.00;101186.56;4920912;29;20079;-92
2023/10/12 12:44:37;;;;;;;14.17;7.97;;;;;;;16.91;100.00;101176.84;4931768;29;20299;-92
2023/10/12 12:47:06;;;;;;;12.05;7.97;;;;;;;16.77;100.00;101177.59;4933635;29;20032;-91
2023/10/12 12:49:31;;;;;;;17.42;8.15;;;;;;;16.58;100.00;101149.69;4933858;29;20039;-92
2023/10/12 12:52:00;;;;;;;14.40;8.83;;;;;;;16.70;100.00;101179.84;4933514;29;20668;-91
2023/10/12 12:54:25;;;;;;;17.30;9.40;;;;;;;16.70;100.00;101187.94;4915594;29;20339;-91
2023/10/12 12:56:53;;;;;;;14.15;8.40;;;;;;;16.71;100.00;101188.75;4948923;29;20086;-93
2023/10/12 12:59:24;;;;;;;15.73;9.20;;;;;;;16.78;100.00;101190.03;4965626;28;20027;-91
2023/10/12 13:01:49;;;;;;;17.87;8.40;;;;;;;16.77;100.00;101190.28;4975336;23;20353;-91
2023/10/12 13:04:17;;;;;;;16.58;9.07;;;;;;;16.80;100.00;101192.44;4951280;29;20039;-91
2023/10/12 13:06:42;;;;;;;15.38;9.60;;;;;;;16.85;100.00;101192.38;4951359;28;20031;-91
2023/10/12 13:09:26;;;;;;;18.45;9.35;;;;;;;16.79;100.00;101190.81;4937466;29;20027;-91
2023/10/12 13:11:51;;;;;;;19.60;9.80;;;;;;;16.77;100.00;101193.81;4936146;29;20036;-90
2023/10/12 13:14:18;;;;;;;17.90;9.07;;;;;;;16.79;100.00;101194.34;4934273;29;20035;-91
2023/10/12 13:16:43;;;;;;;16.23;9.53;;;;;;;16.67;100.00;101188.53;4935867;29;20035;-90
2023/10/12 13:19:11;;;;;;;19.03;9.73;;;;;;;16.67;100.00;101183.13;4919503;29;20760;-92
2023/10/12 13:21:41;;;;;;;17.05;9.85;;;;;;;16.67;100.00;101183.13;4936377;29;20043;-92
2023/10/12 13:24:08;;;;;;;19.23;9.17;;;;;;;16.67;100.00;101183.13;4916526;29;20176;-91
2023/10/12 13:26:33;;;;;;;19.95;9.70;;;;;;;16.69;100.00;101186.34;4935085;29;20044;-92
2023/10/12 13:29:01;;;;;;;17.23;9.83;;;;;;;16.68;100.00;101186.66;4936694;29;20039;-92
2023/10/12 13:31:26;;;;;;;22.15;9.70;;;;;;;16.64;100.00;101181.00;4935203;29;20357;-92
2023/10/12 13:33:52;;;;;;;17.00;9.88;;;;;;;16.69;100.00;101186.34;4931134;29;20115;-91
2023/10/12 13:36:18;;;;;;;20.63;10.35;;;;;;;16.79;100.00;101180.00;4923368;29;20056;-91
2023/10/12 13:38:43;;;;;;;18.20;10.63;;;;;;;16.86;100.00;101175.03;4942149;29;20407;-92
2023/10/12 13:41:11;;;;;;;19.57;10.17;;;;;;;16.99;100.00;101173.50;4937172;29;20023;-90
2023/10/12 13:43:38;;;;;;;23.27;10.70;;;;;;;17.07;100.00;101175.56;4937041;29;20039;-92
2023/10/12 13:46:11;;;;;;;18.67;10.23;;;;;;;17.11;100.00;101164.94;4921551;29;20046;-91
2023/10/12 13:48:37;;;;;;;19.10;9.77;;;;;;;17.38;100.00;101179.72;4925774;29;20028;-92
2023/10/12 13:51:23;;;;;;;17.17;10.23;;;;;;;17.46;100.00;101180.94;4924828;29;20729;-92
2023/10/12 13:53:53;;;;;;;21.13;9.88;;;;;;;17.49;100.00;101170.31;4935544;29;20089;-93
2023/10/12 13:56:23;;;;;;;19.70;9.52;;;;;;;17.49;100.00;101164.91;4933054;29;20028;-92
2023/10/12 13:58:52;;;;;;;15.45;9.48;;;;;;;17.48;100.00;101162.50;4935694;29;20062;-92
2023/10/12 14:01:20;;;;;;;17.67;8.80;;;;;;;17.54;100.00;101172.13;4934182;29;20032;-92
2023/10/12 14:03:53;;;;;;;13.83;8.43;;;;;;;17.44;100.00;101164.97;4934623;29;20502;-92
2023/10/12 14:06:19;;;;;;;14.27;7.87;;;;;;;17.28;100.00;101153.59;4935354;29;20296;-92
2023/10/12 14:08:46;;;;;;;13.52;7.97;;;;;;;17.30;100.00;101161.41;4938710;29;20028;-92
2023/10/12 14:11:16;;;;;;;13.52;7.35;;;;;;;17.25;100.00;101162.31;4928255;29;20040;-92
2023/10/12 14:13:42;;;;;;;18.10;7.97;;;;;;;17.20;100.00;101159.66;4900042;29;20491;-92
2023/10/12 14:16:09;;;;;;;16.63;7.80;;;;;;;17.03;100.00;101155.59;4910908;29;20023;-92
2023/10/12 14:18:34;;;;;;;12.77;8.55;;;;;;;16.91;100.00;101149.78;4932851;29;20037;-91
2023/10/12 14:20:59;;;;;;;15.60;7.60;;;;;;;16.83;100.00;101143.13;4937022;29;20027;-91
2023/10/12 14:23:26;;;;;;;11.87;6.93;;;;;;;16.79;100.00;101145.63;4937914;29;20103;-91